sensor_id;sensor_type;location;lat;lon;timestamp;P1;durP1;ratioP1;P2;durP2;ratioP2
74677;SDS011;67324;56.326;43.982;2023-04-24T00:00:56;4.53;;;3.28;;
74677;SDS011;67324;56.326;43.982;2023-04-24T00:03:23;4.80;;;3.35;;
74677;SDS011;67324;56.326;43.982;2023-04-24T00:05:49;4.97;;;3.40;;
74677;SDS011;67324;56.326;43.982;2023-04-24T00:08:15;4.47;;;3.22;;
74677;SDS011;67324;56.326;43.982;2023-04-24T00:10:41;4.28;;;3.35;;
74677;SDS011;67324;56.326;43.982;2023-04-24T00:13:07;4.00;;;3.10;;
74677;SDS011;67324;56.326;43.982;2023-04-24T00:15:32;6.70;;;3.55;;
74677;SDS011;67324;56.326;43.982;2023-04-24T00:17:58;4.68;;;3.28;;
74677;SDS011;67324;56.326;43.982;2023-04-24T00:20:26;5.65;;;3.30;;
74677;SDS011;67324;56.326;43.982;2023-04-24T00:22:55;4.75;;;3.00;;
74677;SDS011;67324;56.326;43.982;2023-04-24T00:25:21;4.95;;;3.20;;
74677;SDS011;67324;56.326;43.982;2023-04-24T00:27:47;5.20;;;3.20;;
74677;SDS011;67324;56.326;43.982;2023-04-24T00:30:13;5.00;;;3.20;;
74677;SDS011;67324;56.326;43.982;2023-04-24T00:32:39;3.85;;;2.90;;
74677;SDS011;67324;56.326;43.982;2023-04-24T00:35:05;4.95;;;3.13;;
74677;SDS011;67324;56.326;43.982;2023-04-24T00:37:49;4.40;;;3.17;;
74677;SDS011;67324;56.326;43.982;2023-04-24T00:40:15;4.65;;;2.85;;
74677;SDS011;67324;56.326;43.982;2023-04-24T00:42:42;4.88;;;3.22;;
74677;SDS011;67324;56.326;43.982;2023-04-24T00:45:09;4.28;;;2.88;;
74677;SDS011;67324;56.326;43.982;2023-04-24T00:47:36;4.35;;;3.00;;
74677;SDS011;67324;56.326;43.982;2023-04-24T00:50:02;3.78;;;3.00;;
74677;SDS011;67324;56.326;43.982;2023-04-24T00:52:29;6.00;;;3.22;;
74677;SDS011;67324;56.326;43.982;2023-04-24T00:54:57;4.38;;;2.95;;
74677;SDS011;67324;56.326;43.982;2023-04-24T00:57:23;4.38;;;2.88;;
74677;SDS011;67324;56.326;43.982;2023-04-24T00:59:50;4.22;;;2.88;;
74677;SDS011;67324;56.326;43.982;2023-04-24T01:02:17;5.32;;;3.35;;
74677;SDS011;67324;56.326;43.982;2023-04-24T01:04:43;6.25;;;3.13;;
74677;SDS011;67324;56.326;43.982;2023-04-24T01:07:09;4.18;;;2.80;;
74677;SDS011;67324;56.326;43.982;2023-04-24T01:09:54;5.22;;;3.10;;
74677;SDS011;67324;56.326;43.982;2023-04-24T01:12:21;5.30;;;2.90;;
74677;SDS011;67324;56.326;43.982;2023-04-24T01:14:46;4.82;;;2.85;;
74677;SDS011;67324;56.326;43.982;2023-04-24T01:17:14;4.43;;;2.75;;
74677;SDS011;67324;56.326;43.982;2023-04-24T01:19:40;3.72;;;3.20;;
74677;SDS011;67324;56.326;43.982;2023-04-24T01:22:13;4.68;;;2.92;;
74677;SDS011;67324;56.326;43.982;2023-04-24T01:24:58;4.82;;;2.90;;
74677;SDS011;67324;56.326;43.982;2023-04-24T01:27:24;3.08;;;2.78;;
74677;SDS011;67324;56.326;43.982;2023-04-24T01:29:50;4.05;;;2.75;;
74677;SDS011;67324;56.326;43.982;2023-04-24T01:32:17;5.32;;;3.20;;
74677;SDS011;67324;56.326;43.982;2023-04-24T01:34:44;4.85;;;2.78;;
74677;SDS011;67324;56.326;43.982;2023-04-24T01:37:10;4.20;;;3.10;;
74677;SDS011;67324;56.326;43.982;2023-04-24T01:39:36;3.63;;;3.03;;
74677;SDS011;67324;56.326;43.982;2023-04-24T01:42:02;4.70;;;3.10;;
74677;SDS011;67324;56.326;43.982;2023-04-24T01:44:28;5.13;;;3.03;;
74677;SDS011;67324;56.326;43.982;2023-04-24T01:46:54;3.47;;;2.60;;
74677;SDS011;67324;56.326;43.982;2023-04-24T01:49:23;5.03;;;2.75;;
74677;SDS011;67324;56.326;43.982;2023-04-24T01:51:48;4.30;;;3.17;;
74677;SDS011;67324;56.326;43.982;2023-04-24T01:54:14;3.55;;;2.83;;
74677;SDS011;67324;56.326;43.982;2023-04-24T01:56:41;4.43;;;3.30;;
74677;SDS011;67324;56.326;43.982;2023-04-24T01:59:10;4.75;;;2.90;;
74677;SDS011;67324;56.326;43.982;2023-04-24T02:01:37;4.32;;;3.10;;
74677;SDS011;67324;56.326;43.982;2023-04-24T02:04:03;3.63;;;2.78;;
74677;SDS011;67324;56.326;43.982;2023-04-24T02:06:30;3.85;;;2.60;;
74677;SDS011;67324;56.326;43.982;2023-04-24T02:09:00;3.72;;;2.80;;
74677;SDS011;67324;56.326;43.982;2023-04-24T02:11:27;3.85;;;2.80;;
74677;SDS011;67324;56.326;43.982;2023-04-24T02:13:53;3.72;;;2.80;;
74677;SDS011;67324;56.326;43.982;2023-04-24T02:16:18;3.45;;;2.80;;
74677;SDS011;67324;56.326;43.982;2023-04-24T02:19:04;4.13;;;2.88;;
74677;SDS011;67324;56.326;43.982;2023-04-24T02:21:30;3.53;;;2.97;;
74677;SDS011;67324;56.326;43.982;2023-04-24T02:23:56;4.20;;;2.85;;
74677;SDS011;67324;56.326;43.982;2023-04-24T02:26:22;3.20;;;2.70;;
74677;SDS011;67324;56.326;43.982;2023-04-24T02:28:50;4.72;;;3.00;;
74677;SDS011;67324;56.326;43.982;2023-04-24T02:31:18;3.75;;;2.88;;
74677;SDS011;67324;56.326;43.982;2023-04-24T02:33:44;5.00;;;2.88;;
74677;SDS011;67324;56.326;43.982;2023-04-24T02:36:10;3.40;;;2.70;;
74677;SDS011;67324;56.326;43.982;2023-04-24T02:38:35;4.95;;;2.80;;
74677;SDS011;67324;56.326;43.982;2023-04-24T02:41:01;4.40;;;2.75;;
74677;SDS011;67324;56.326;43.982;2023-04-24T02:43:31;4.90;;;2.90;;
74677;SDS011;67324;56.326;43.982;2023-04-24T02:45:59;3.45;;;3.00;;
74677;SDS011;67324;56.326;43.982;2023-04-24T02:48:25;3.92;;;2.78;;
74677;SDS011;67324;56.326;43.982;2023-04-24T02:50:51;5.47;;;2.80;;
74677;SDS011;67324;56.326;43.982;2023-04-24T02:53:35;3.45;;;2.67;;
74677;SDS011;67324;56.326;43.982;2023-04-24T02:56:01;3.65;;;2.65;;
74677;SDS011;67324;56.326;43.982;2023-04-24T02:58:46;4.45;;;2.53;;
74677;SDS011;67324;56.326;43.982;2023-04-24T03:01:12;3.53;;;2.55;;
74677;SDS011;67324;56.326;43.982;2023-04-24T03:03:38;4.07;;;2.67;;
74677;SDS011;67324;56.326;43.982;2023-04-24T03:06:04;4.30;;;2.60;;
74677;SDS011;67324;56.326;43.982;2023-04-24T03:08:34;5.57;;;2.63;;
74677;SDS011;67324;56.326;43.982;2023-04-24T03:11:00;4.45;;;2.78;;
74677;SDS011;67324;56.326;43.982;2023-04-24T03:13:26;5.03;;;2.72;;
74677;SDS011;67324;56.326;43.982;2023-04-24T03:15:52;3.63;;;2.45;;
74677;SDS011;67324;56.326;43.982;2023-04-24T03:18:19;3.72;;;2.67;;
74677;SDS011;67324;56.326;43.982;2023-04-24T03:20:47;4.72;;;2.83;;
74677;SDS011;67324;56.326;43.982;2023-04-24T03:23:13;3.92;;;2.83;;
74677;SDS011;67324;56.326;43.982;2023-04-24T03:25:39;3.47;;;2.65;;
74677;SDS011;67324;56.326;43.982;2023-04-24T03:28:06;3.72;;;2.72;;
74677;SDS011;67324;56.326;43.982;2023-04-24T03:30:52;4.30;;;2.47;;
74677;SDS011;67324;56.326;43.982;2023-04-24T03:33:19;3.45;;;2.45;;
74677;SDS011;67324;56.326;43.982;2023-04-24T03:35:59;3.03;;;2.33;;
74677;SDS011;67324;56.326;43.982;2023-04-24T03:38:26;3.53;;;2.58;;
74677;SDS011;67324;56.326;43.982;2023-04-24T03:40:52;4.20;;;2.70;;
74677;SDS011;67324;56.326;43.982;2023-04-24T03:43:36;3.20;;;2.50;;
74677;SDS011;67324;56.326;43.982;2023-04-24T03:46:04;4.72;;;2.70;;
74677;SDS011;67324;56.326;43.982;2023-04-24T03:48:33;3.90;;;2.55;;
74677;SDS011;67324;56.326;43.982;2023-04-24T03:51:00;4.93;;;3.10;;
74677;SDS011;67324;56.326;43.982;2023-04-24T03:53:28;3.28;;;2.47;;
74677;SDS011;67324;56.326;43.982;2023-04-24T03:55:54;3.72;;;2.50;;
74677;SDS011;67324;56.326;43.982;2023-04-24T03:58:21;3.10;;;2.75;;
74677;SDS011;67324;56.326;43.982;2023-04-24T04:01:05;5.18;;;2.78;;
74677;SDS011;67324;56.326;43.982;2023-04-24T04:03:53;4.05;;;2.60;;
74677;SDS011;67324;56.326;43.982;2023-04-24T04:06:22;2.95;;;2.17;;
74677;SDS011;67324;56.326;43.982;2023-04-24T04:08:50;3.63;;;2.40;;
74677;SDS011;67324;56.326;43.982;2023-04-24T04:11:34;4.30;;;2.55;;
74677;SDS011;67324;56.326;43.982;2023-04-24T04:14:01;3.25;;;2.50;;
74677;SDS011;67324;56.326;43.982;2023-04-24T04:16:27;3.05;;;2.25;;
74677;SDS011;67324;56.326;43.982;2023-04-24T04:18:59;3.75;;;2.50;;
74677;SDS011;67324;56.326;43.982;2023-04-24T04:21:25;3.38;;;2.35;;
74677;SDS011;67324;56.326;43.982;2023-04-24T04:23:57;4.10;;;2.60;;
74677;SDS011;67324;56.326;43.982;2023-04-24T04:26:31;3.85;;;2.63;;
74677;SDS011;67324;56.326;43.982;2023-04-24T04:29:06;3.10;;;2.45;;
74677;SDS011;67324;56.326;43.982;2023-04-24T04:31:35;3.30;;;2.42;;
74677;SDS011;67324;56.326;43.982;2023-04-24T04:34:06;3.63;;;2.83;;
74677;SDS011;67324;56.326;43.982;2023-04-24T04:36:33;3.83;;;2.40;;
74677;SDS011;67324;56.326;43.982;2023-04-24T04:39:10;4.15;;;2.58;;
74677;SDS011;67324;56.326;43.982;2023-04-24T04:41:46;2.97;;;2.20;;
74677;SDS011;67324;56.326;43.982;2023-04-24T04:44:16;4.32;;;2.50;;
74677;SDS011;67324;56.326;43.982;2023-04-24T04:46:42;3.28;;;2.83;;
74677;SDS011;67324;56.326;43.982;2023-04-24T04:49:28;2.97;;;2.40;;
74677;SDS011;67324;56.326;43.982;2023-04-24T04:51:54;3.10;;;2.50;;
74677;SDS011;67324;56.326;43.982;2023-04-24T04:54:22;3.22;;;2.40;;
74677;SDS011;67324;56.326;43.982;2023-04-24T04:56:49;2.92;;;2.40;;
74677;SDS011;67324;56.326;43.982;2023-04-24T04:59:15;3.30;;;2.55;;
74677;SDS011;67324;56.326;43.982;2023-04-24T05:01:41;2.70;;;2.10;;
74677;SDS011;67324;56.326;43.982;2023-04-24T05:04:09;2.72;;;2.03;;
74677;SDS011;67324;56.326;43.982;2023-04-24T05:06:36;2.92;;;2.40;;
74677;SDS011;67324;56.326;43.982;2023-04-24T05:09:03;3.28;;;2.45;;
74677;SDS011;67324;56.326;43.982;2023-04-24T05:11:36;2.80;;;2.17;;
74677;SDS011;67324;56.326;43.982;2023-04-24T05:14:02;3.33;;;2.30;;
74677;SDS011;67324;56.326;43.982;2023-04-24T05:16:34;3.65;;;2.58;;
74677;SDS011;67324;56.326;43.982;2023-04-24T05:19:00;3.80;;;2.28;;
74677;SDS011;67324;56.326;43.982;2023-04-24T05:21:31;3.25;;;2.25;;
74677;SDS011;67324;56.326;43.982;2023-04-24T05:24:15;3.47;;;2.20;;
74677;SDS011;67324;56.326;43.982;2023-04-24T05:27:02;3.63;;;2.40;;
74677;SDS011;67324;56.326;43.982;2023-04-24T05:29:40;4.70;;;2.45;;
74677;SDS011;67324;56.326;43.982;2023-04-24T05:32:07;4.22;;;2.70;;
74677;SDS011;67324;56.326;43.982;2023-04-24T05:34:33;6.50;;;3.47;;
74677;SDS011;67324;56.326;43.982;2023-04-24T05:36:59;5.10;;;3.20;;
74677;SDS011;67324;56.326;43.982;2023-04-24T05:39:25;5.20;;;2.88;;
74677;SDS011;67324;56.326;43.982;2023-04-24T05:41:51;5.55;;;2.95;;
74677;SDS011;67324;56.326;43.982;2023-04-24T05:44:17;6.97;;;3.25;;
74677;SDS011;67324;56.326;43.982;2023-04-24T05:46:43;5.05;;;3.00;;
74677;SDS011;67324;56.326;43.982;2023-04-24T05:49:10;4.55;;;2.88;;
74677;SDS011;67324;56.326;43.982;2023-04-24T05:51:36;4.13;;;2.78;;
74677;SDS011;67324;56.326;43.982;2023-04-24T05:54:02;5.00;;;3.03;;
74677;SDS011;67324;56.326;43.982;2023-04-24T05:56:28;4.22;;;2.88;;
74677;SDS011;67324;56.326;43.982;2023-04-24T05:58:56;4.95;;;2.83;;
74677;SDS011;67324;56.326;43.982;2023-04-24T06:01:22;4.55;;;2.80;;
74677;SDS011;67324;56.326;43.982;2023-04-24T06:03:56;3.83;;;2.85;;
74677;SDS011;67324;56.326;43.982;2023-04-24T06:06:24;4.15;;;2.88;;
74677;SDS011;67324;56.326;43.982;2023-04-24T06:08:51;4.22;;;2.75;;
74677;SDS011;67324;56.326;43.982;2023-04-24T06:11:17;3.47;;;2.53;;
74677;SDS011;67324;56.326;43.982;2023-04-24T06:13:43;4.93;;;2.65;;
74677;SDS011;67324;56.326;43.982;2023-04-24T06:16:31;4.75;;;2.88;;
74677;SDS011;67324;56.326;43.982;2023-04-24T06:19:02;4.25;;;2.90;;
74677;SDS011;67324;56.326;43.982;2023-04-24T06:21:28;4.68;;;3.03;;
74677;SDS011;67324;56.326;43.982;2023-04-24T06:23:54;4.05;;;2.83;;
74677;SDS011;67324;56.326;43.982;2023-04-24T06:26:21;4.63;;;2.75;;
74677;SDS011;67324;56.326;43.982;2023-04-24T06:28:47;4.38;;;2.78;;
74677;SDS011;67324;56.326;43.982;2023-04-24T06:31:13;4.78;;;2.92;;
74677;SDS011;67324;56.326;43.982;2023-04-24T06:33:39;4.90;;;2.80;;
74677;SDS011;67324;56.326;43.982;2023-04-24T06:36:05;4.82;;;2.60;;
74677;SDS011;67324;56.326;43.982;2023-04-24T06:38:31;3.90;;;2.60;;
74677;SDS011;67324;56.326;43.982;2023-04-24T06:40:57;6.28;;;3.00;;
74677;SDS011;67324;56.326;43.982;2023-04-24T06:43:23;4.05;;;2.72;;
74677;SDS011;67324;56.326;43.982;2023-04-24T06:45:49;3.83;;;3.17;;
74677;SDS011;67324;56.326;43.982;2023-04-24T06:48:15;4.50;;;2.70;;
74677;SDS011;67324;56.326;43.982;2023-04-24T06:50:41;4.18;;;2.65;;
74677;SDS011;67324;56.326;43.982;2023-04-24T06:53:07;3.15;;;2.60;;
74677;SDS011;67324;56.326;43.982;2023-04-24T06:55:33;3.65;;;2.78;;
74677;SDS011;67324;56.326;43.982;2023-04-24T06:57:59;4.18;;;2.65;;
74677;SDS011;67324;56.326;43.982;2023-04-24T07:00:24;4.07;;;2.80;;
74677;SDS011;67324;56.326;43.982;2023-04-24T07:02:50;4.00;;;3.00;;
74677;SDS011;67324;56.326;43.982;2023-04-24T07:05:16;5.07;;;2.85;;
74677;SDS011;67324;56.326;43.982;2023-04-24T07:07:45;4.47;;;2.45;;
74677;SDS011;67324;56.326;43.982;2023-04-24T07:10:12;4.25;;;2.55;;
74677;SDS011;67324;56.326;43.982;2023-04-24T07:12:38;4.35;;;2.90;;
74677;SDS011;67324;56.326;43.982;2023-04-24T07:15:05;4.75;;;2.50;;
74677;SDS011;67324;56.326;43.982;2023-04-24T07:17:31;4.57;;;2.75;;
74677;SDS011;67324;56.326;43.982;2023-04-24T07:19:57;3.65;;;2.67;;
74677;SDS011;67324;56.326;43.982;2023-04-24T07:22:23;3.88;;;2.75;;
74677;SDS011;67324;56.326;43.982;2023-04-24T07:24:49;3.03;;;2.50;;
74677;SDS011;67324;56.326;43.982;2023-04-24T07:27:15;5.28;;;2.60;;
74677;SDS011;67324;56.326;43.982;2023-04-24T07:29:40;5.60;;;2.70;;
74677;SDS011;67324;56.326;43.982;2023-04-24T07:32:06;3.50;;;2.70;;
74677;SDS011;67324;56.326;43.982;2023-04-24T07:34:33;3.88;;;2.80;;
74677;SDS011;67324;56.326;43.982;2023-04-24T07:36:59;6.03;;;2.75;;
74677;SDS011;67324;56.326;43.982;2023-04-24T07:39:24;3.50;;;2.67;;
74677;SDS011;67324;56.326;43.982;2023-04-24T07:41:51;3.95;;;2.85;;
74677;SDS011;67324;56.326;43.982;2023-04-24T07:44:17;5.35;;;2.88;;
74677;SDS011;67324;56.326;43.982;2023-04-24T07:46:43;4.45;;;2.58;;
74677;SDS011;67324;56.326;43.982;2023-04-24T07:49:09;4.65;;;2.80;;
74677;SDS011;67324;56.326;43.982;2023-04-24T07:51:35;4.07;;;2.80;;
74677;SDS011;67324;56.326;43.982;2023-04-24T07:54:04;4.50;;;2.70;;
74677;SDS011;67324;56.326;43.982;2023-04-24T07:56:31;3.60;;;2.45;;
74677;SDS011;67324;56.326;43.982;2023-04-24T07:58:57;3.92;;;2.55;;
74677;SDS011;67324;56.326;43.982;2023-04-24T08:01:23;3.78;;;2.60;;
74677;SDS011;67324;56.326;43.982;2023-04-24T08:03:50;3.53;;;2.40;;
74677;SDS011;67324;56.326;43.982;2023-04-24T08:06:35;3.92;;;2.55;;
74677;SDS011;67324;56.326;43.982;2023-04-24T08:09:00;3.60;;;2.83;;
74677;SDS011;67324;56.326;43.982;2023-04-24T08:11:26;3.75;;;2.40;;
74677;SDS011;67324;56.326;43.982;2023-04-24T08:13:52;4.45;;;2.92;;
74677;SDS011;67324;56.326;43.982;2023-04-24T08:16:19;4.60;;;2.60;;
74677;SDS011;67324;56.326;43.982;2023-04-24T08:18:45;3.97;;;2.58;;
74677;SDS011;67324;56.326;43.982;2023-04-24T08:21:11;4.85;;;2.78;;
74677;SDS011;67324;56.326;43.982;2023-04-24T08:23:42;4.55;;;2.83;;
74677;SDS011;67324;56.326;43.982;2023-04-24T08:26:08;4.75;;;2.70;;
74677;SDS011;67324;56.326;43.982;2023-04-24T08:28:35;4.13;;;2.70;;
74677;SDS011;67324;56.326;43.982;2023-04-24T08:31:01;3.88;;;2.53;;
74677;SDS011;67324;56.326;43.982;2023-04-24T08:33:27;4.15;;;2.53;;
74677;SDS011;67324;56.326;43.982;2023-04-24T08:35:58;4.72;;;2.80;;
74677;SDS011;67324;56.326;43.982;2023-04-24T08:38:26;6.72;;;3.78;;
74677;SDS011;67324;56.326;43.982;2023-04-24T08:40:51;6.18;;;4.30;;
74677;SDS011;67324;56.326;43.982;2023-04-24T08:43:18;9.07;;;5.03;;
74677;SDS011;67324;56.326;43.982;2023-04-24T08:45:46;6.25;;;4.85;;
74677;SDS011;67324;56.326;43.982;2023-04-24T08:48:12;7.50;;;4.93;;
74677;SDS011;67324;56.326;43.982;2023-04-24T08:50:40;10.43;;;5.32;;
74677;SDS011;67324;56.326;43.982;2023-04-24T08:53:08;6.43;;;4.57;;
74677;SDS011;67324;56.326;43.982;2023-04-24T08:55:34;7.03;;;4.63;;
74677;SDS011;67324;56.326;43.982;2023-04-24T08:58:01;6.78;;;5.03;;
74677;SDS011;67324;56.326;43.982;2023-04-24T09:00:28;6.80;;;4.63;;
74677;SDS011;67324;56.326;43.982;2023-04-24T09:02:54;6.18;;;4.63;;
74677;SDS011;67324;56.326;43.982;2023-04-24T09:05:21;5.93;;;4.65;;
74677;SDS011;67324;56.326;43.982;2023-04-24T09:07:55;6.25;;;4.63;;
74677;SDS011;67324;56.326;43.982;2023-04-24T09:10:23;5.97;;;4.53;;
74677;SDS011;67324;56.326;43.982;2023-04-24T09:12:50;8.00;;;4.70;;
74677;SDS011;67324;56.326;43.982;2023-04-24T09:15:18;8.05;;;4.70;;
74677;SDS011;67324;56.326;43.982;2023-04-24T09:17:45;7.05;;;4.50;;
74677;SDS011;67324;56.326;43.982;2023-04-24T09:20:12;6.95;;;4.63;;
74677;SDS011;67324;56.326;43.982;2023-04-24T09:22:38;6.97;;;4.55;;
74677;SDS011;67324;56.326;43.982;2023-04-24T09:25:05;6.70;;;4.20;;
74677;SDS011;67324;56.326;43.982;2023-04-24T09:27:41;7.50;;;4.05;;
74677;SDS011;67324;56.326;43.982;2023-04-24T09:30:09;7.63;;;4.30;;
74677;SDS011;67324;56.326;43.982;2023-04-24T09:35:42;7.60;;;4.15;;
74677;SDS011;67324;56.326;43.982;2023-04-24T09:38:13;7.10;;;3.72;;
74677;SDS011;67324;56.326;43.982;2023-04-24T09:40:39;5.43;;;3.75;;
74677;SDS011;67324;56.326;43.982;2023-04-24T09:43:09;4.93;;;4.10;;
74677;SDS011;67324;56.326;43.982;2023-04-24T09:45:36;5.63;;;3.60;;
74677;SDS011;67324;56.326;43.982;2023-04-24T09:48:03;6.03;;;3.80;;
74677;SDS011;67324;56.326;43.982;2023-04-24T09:50:31;5.50;;;4.40;;
74677;SDS011;67324;56.326;43.982;2023-04-24T09:53:02;8.88;;;4.57;;
74677;SDS011;67324;56.326;43.982;2023-04-24T09:55:30;6.72;;;4.13;;
74677;SDS011;67324;56.326;43.982;2023-04-24T09:57:57;6.28;;;4.22;;
74677;SDS011;67324;56.326;43.982;2023-04-24T10:00:26;6.57;;;4.25;;
74677;SDS011;67324;56.326;43.982;2023-04-24T10:03:00;4.85;;;3.40;;
74677;SDS011;67324;56.326;43.982;2023-04-24T10:05:28;7.68;;;3.60;;
74677;SDS011;67324;56.326;43.982;2023-04-24T10:07:57;8.43;;;3.70;;
74677;SDS011;67324;56.326;43.982;2023-04-24T10:10:25;4.63;;;3.42;;
74677;SDS011;67324;56.326;43.982;2023-04-24T10:12:52;5.45;;;3.42;;
74677;SDS011;67324;56.326;43.982;2023-04-24T10:15:18;6.35;;;4.38;;
74677;SDS011;67324;56.326;43.982;2023-04-24T10:17:47;5.53;;;3.72;;
74677;SDS011;67324;56.326;43.982;2023-04-24T10:20:21;9.70;;;3.83;;
74677;SDS011;67324;56.326;43.982;2023-04-24T10:22:49;6.43;;;3.55;;
74677;SDS011;67324;56.326;43.982;2023-04-24T10:25:16;6.95;;;3.53;;
74677;SDS011;67324;56.326;43.982;2023-04-24T10:27:45;4.63;;;3.63;;
74677;SDS011;67324;56.326;43.982;2023-04-24T10:30:11;5.97;;;3.40;;
74677;SDS011;67324;56.326;43.982;2023-04-24T10:32:38;4.75;;;3.00;;
74677;SDS011;67324;56.326;43.982;2023-04-24T10:35:05;6.15;;;3.33;;
74677;SDS011;67324;56.326;43.982;2023-04-24T10:37:36;6.57;;;3.47;;
74677;SDS011;67324;56.326;43.982;2023-04-24T10:40:06;5.23;;;3.47;;
74677;SDS011;67324;56.326;43.982;2023-04-24T10:42:33;4.32;;;3.25;;
74677;SDS011;67324;56.326;43.982;2023-04-24T10:45:04;4.40;;;3.30;;
74677;SDS011;67324;56.326;43.982;2023-04-24T10:47:39;4.38;;;3.13;;
74677;SDS011;67324;56.326;43.982;2023-04-24T10:50:09;5.95;;;3.10;;
74677;SDS011;67324;56.326;43.982;2023-04-24T10:52:48;5.55;;;3.38;;
74677;SDS011;67324;56.326;43.982;2023-04-24T10:58:09;7.60;;;3.40;;
74677;SDS011;67324;56.326;43.982;2023-04-24T11:00:39;4.57;;;3.45;;
74677;SDS011;67324;56.326;43.982;2023-04-24T11:03:06;4.15;;;3.10;;
74677;SDS011;67324;56.326;43.982;2023-04-24T11:06:06;4.63;;;3.42;;
74677;SDS011;67324;56.326;43.982;2023-04-24T11:08:43;6.35;;;3.00;;
74677;SDS011;67324;56.326;43.982;2023-04-24T11:11:11;9.98;;;3.85;;
74677;SDS011;67324;56.326;43.982;2023-04-24T11:18:52;5.15;;;3.17;;
74677;SDS011;67324;56.326;43.982;2023-04-24T11:21:25;4.05;;;2.90;;
74677;SDS011;67324;56.326;43.982;2023-04-24T11:23:56;6.68;;;3.10;;
74677;SDS011;67324;56.326;43.982;2023-04-24T11:26:23;4.90;;;3.00;;
74677;SDS011;67324;56.326;43.982;2023-04-24T11:29:06;4.70;;;3.17;;
74677;SDS011;67324;56.326;43.982;2023-04-24T11:31:44;5.15;;;2.92;;
74677;SDS011;67324;56.326;43.982;2023-04-24T11:34:15;4.18;;;2.90;;
74677;SDS011;67324;56.326;43.982;2023-04-24T11:36:47;4.50;;;3.00;;
74677;SDS011;67324;56.326;43.982;2023-04-24T11:39:14;4.65;;;2.97;;
74677;SDS011;67324;56.326;43.982;2023-04-24T11:41:40;4.90;;;3.20;;
74677;SDS011;67324;56.326;43.982;2023-04-24T11:44:07;5.68;;;3.92;;
74677;SDS011;67324;56.326;43.982;2023-04-24T11:46:34;5.00;;;3.55;;
74677;SDS011;67324;56.326;43.982;2023-04-24T11:49:00;3.90;;;3.20;;
74677;SDS011;67324;56.326;43.982;2023-04-24T11:51:26;5.05;;;3.38;;
74677;SDS011;67324;56.326;43.982;2023-04-24T11:53:53;5.72;;;3.08;;
74677;SDS011;67324;56.326;43.982;2023-04-24T11:56:23;5.97;;;3.20;;
74677;SDS011;67324;56.326;43.982;2023-04-24T11:58:53;5.97;;;3.00;;
74677;SDS011;67324;56.326;43.982;2023-04-24T12:04:14;4.68;;;2.63;;
74677;SDS011;67324;56.326;43.982;2023-04-24T12:09:26;7.07;;;3.03;;
74677;SDS011;67324;56.326;43.982;2023-04-24T12:11:55;5.88;;;3.25;;
74677;SDS011;67324;56.326;43.982;2023-04-24T12:14:25;4.75;;;3.13;;
74677;SDS011;67324;56.326;43.982;2023-04-24T12:16:50;4.07;;;3.13;;
74677;SDS011;67324;56.326;43.982;2023-04-24T12:19:23;5.72;;;2.92;;
74677;SDS011;67324;56.326;43.982;2023-04-24T12:22:01;3.85;;;3.00;;
74677;SDS011;67324;56.326;43.982;2023-04-24T12:24:29;3.58;;;2.83;;
74677;SDS011;67324;56.326;43.982;2023-04-24T12:26:56;4.63;;;3.05;;
74677;SDS011;67324;56.326;43.982;2023-04-24T12:29:23;3.65;;;2.80;;
74677;SDS011;67324;56.326;43.982;2023-04-24T12:31:49;5.80;;;3.03;;
74677;SDS011;67324;56.326;43.982;2023-04-24T12:34:23;4.25;;;2.97;;
74677;SDS011;67324;56.326;43.982;2023-04-24T12:36:51;4.43;;;3.08;;
74677;SDS011;67324;56.326;43.982;2023-04-24T12:39:17;5.35;;;3.10;;
74677;SDS011;67324;56.326;43.982;2023-04-24T12:41:57;4.40;;;2.80;;
74677;SDS011;67324;56.326;43.982;2023-04-24T12:44:33;4.53;;;3.00;;
74677;SDS011;67324;56.326;43.982;2023-04-24T12:47:00;4.82;;;2.90;;
74677;SDS011;67324;56.326;43.982;2023-04-24T12:49:27;4.25;;;2.90;;
74677;SDS011;67324;56.326;43.982;2023-04-24T12:51:55;5.93;;;3.00;;
74677;SDS011;67324;56.326;43.982;2023-04-24T12:54:21;4.57;;;2.83;;
74677;SDS011;67324;56.326;43.982;2023-04-24T12:56:47;4.30;;;3.10;;
74677;SDS011;67324;56.326;43.982;2023-04-24T12:59:13;6.38;;;3.28;;
74677;SDS011;67324;56.326;43.982;2023-04-24T13:01:40;5.38;;;2.97;;
74677;SDS011;67324;56.326;43.982;2023-04-24T13:04:06;7.13;;;2.97;;
74677;SDS011;67324;56.326;43.982;2023-04-24T13:06:32;5.45;;;3.10;;
74677;SDS011;67324;56.326;43.982;2023-04-24T13:08:58;4.05;;;3.10;;
74677;SDS011;67324;56.326;43.982;2023-04-24T13:11:24;4.10;;;3.03;;
74677;SDS011;67324;56.326;43.982;2023-04-24T13:13:50;5.28;;;3.15;;
74677;SDS011;67324;56.326;43.982;2023-04-24T13:16:16;3.90;;;3.00;;
74677;SDS011;67324;56.326;43.982;2023-04-24T13:18:42;5.05;;;3.28;;
74677;SDS011;67324;56.326;43.982;2023-04-24T13:21:08;3.42;;;2.90;;
74677;SDS011;67324;56.326;43.982;2023-04-24T13:23:34;4.90;;;3.30;;
74677;SDS011;67324;56.326;43.982;2023-04-24T13:26:00;3.42;;;3.00;;
74677;SDS011;67324;56.326;43.982;2023-04-24T13:28:26;6.22;;;3.30;;
74677;SDS011;67324;56.326;43.982;2023-04-24T13:30:53;5.20;;;2.90;;
74677;SDS011;67324;56.326;43.982;2023-04-24T13:33:18;5.25;;;3.38;;
74677;SDS011;67324;56.326;43.982;2023-04-24T13:38:28;6.63;;;3.08;;
74677;SDS011;67324;56.326;43.982;2023-04-24T13:40:54;6.45;;;2.95;;
74677;SDS011;67324;56.326;43.982;2023-04-24T13:43:20;5.70;;;3.00;;
74677;SDS011;67324;56.326;43.982;2023-04-24T13:45:46;4.25;;;2.70;;
74677;SDS011;67324;56.326;43.982;2023-04-24T13:48:12;3.58;;;2.78;;
74677;SDS011;67324;56.326;43.982;2023-04-24T13:50:41;3.42;;;2.60;;
74677;SDS011;67324;56.326;43.982;2023-04-24T13:53:08;5.13;;;2.75;;
74677;SDS011;67324;56.326;43.982;2023-04-24T13:58:24;4.05;;;2.80;;
74677;SDS011;67324;56.326;43.982;2023-04-24T14:00:50;5.03;;;2.90;;
74677;SDS011;67324;56.326;43.982;2023-04-24T14:03:16;3.97;;;2.53;;
74677;SDS011;67324;56.326;43.982;2023-04-24T14:05:42;4.00;;;2.70;;
74677;SDS011;67324;56.326;43.982;2023-04-24T14:08:08;4.03;;;2.67;;
74677;SDS011;67324;56.326;43.982;2023-04-24T14:10:33;4.00;;;3.17;;
74677;SDS011;67324;56.326;43.982;2023-04-24T14:12:59;5.65;;;2.95;;
74677;SDS011;67324;56.326;43.982;2023-04-24T14:15:25;6.38;;;2.95;;
74677;SDS011;67324;56.326;43.982;2023-04-24T14:17:51;4.38;;;2.80;;
74677;SDS011;67324;56.326;43.982;2023-04-24T14:20:17;6.55;;;2.90;;
74677;SDS011;67324;56.326;43.982;2023-04-24T14:22:43;5.15;;;2.78;;
74677;SDS011;67324;56.326;43.982;2023-04-24T14:25:09;5.32;;;3.00;;
74677;SDS011;67324;56.326;43.982;2023-04-24T14:27:34;5.50;;;3.30;;
74677;SDS011;67324;56.326;43.982;2023-04-24T14:30:00;5.10;;;2.80;;
74677;SDS011;67324;56.326;43.982;2023-04-24T14:32:28;4.55;;;2.88;;
74677;SDS011;67324;56.326;43.982;2023-04-24T14:34:54;3.90;;;2.65;;
74677;SDS011;67324;56.326;43.982;2023-04-24T14:37:20;5.22;;;2.65;;
74677;SDS011;67324;56.326;43.982;2023-04-24T14:39:46;6.63;;;2.88;;
74677;SDS011;67324;56.326;43.982;2023-04-24T14:42:12;5.00;;;2.55;;
74677;SDS011;67324;56.326;43.982;2023-04-24T14:44:37;6.03;;;2.80;;
74677;SDS011;67324;56.326;43.982;2023-04-24T14:47:03;4.15;;;2.60;;
74677;SDS011;67324;56.326;43.982;2023-04-24T14:49:29;4.57;;;2.95;;
74677;SDS011;67324;56.326;43.982;2023-04-24T14:51:55;5.90;;;3.40;;
74677;SDS011;67324;56.326;43.982;2023-04-24T14:54:21;6.10;;;3.15;;
74677;SDS011;67324;56.326;43.982;2023-04-24T14:56:48;4.97;;;3.20;;
74677;SDS011;67324;56.326;43.982;2023-04-24T14:59:15;5.45;;;3.10;;
74677;SDS011;67324;56.326;43.982;2023-04-24T15:01:41;5.15;;;3.20;;